createdAt,value
2019-05-02T00:00:40.992Z,8.38
2019-05-02T00:01:40.981Z,8.36
2019-05-02T00:02:40.975Z,8.37
2019-05-02T00:03:42.799Z,8.38
2019-05-02T00:04:40.950Z,8.30
2019-05-02T00:05:40.961Z,8.24
2019-05-02T00:06:42.887Z,8.33
2019-05-02T00:07:40.918Z,8.31
2019-05-02T00:08:40.916Z,8.30
2019-05-02T00:09:47.415Z,8.36
2019-05-02T00:10:41.887Z,8.36
2019-05-02T00:11:40.881Z,8.34
2019-05-02T00:12:40.864Z,8.33
2019-05-02T00:13:40.860Z,8.45
2019-05-02T00:14:40.862Z,8.34
2019-05-02T00:15:40.840Z,8.46
2019-05-02T00:16:45.032Z,8.34
2019-05-02T00:17:41.807Z,8.30
2019-05-02T00:18:40.800Z,8.34
2019-05-02T00:19:45.218Z,8.36
2019-05-02T00:20:41.778Z,8.49
2019-05-02T00:21:43.101Z,8.36
2019-05-02T00:22:40.757Z,8.37
2019-05-02T00:23:40.747Z,8.44
2019-05-02T00:24:41.089Z,8.30
2019-05-02T00:25:40.733Z,8.26
2019-05-02T00:26:40.717Z,8.31
2019-05-02T00:27:40.715Z,8.27
2019-05-02T00:28:42.958Z,8.26
2019-05-02T00:29:41.681Z,8.26
2019-05-02T00:30:40.668Z,8.13
2019-05-02T00:31:41.999Z,8.16
2019-05-02T00:32:41.647Z,8.18
2019-05-02T00:33:40.659Z,8.19
2019-05-02T00:34:40.625Z,8.15
2019-05-02T00:35:45.533Z,8.13
2019-05-02T00:36:41.605Z,8.10
2019-05-02T00:37:40.597Z,8.10
2019-05-02T00:38:40.592Z,8.19
2019-05-02T00:39:40.572Z,8.20
2019-05-02T00:40:40.562Z,8.12
2019-05-02T00:41:40.586Z,8.13
2019-05-02T00:42:40.542Z,8.12
2019-05-02T00:43:40.527Z,8.08
2019-05-02T00:44:42.068Z,8.10
2019-05-02T00:45:41.516Z,8.06
2019-05-02T00:46:40.500Z,8.05
2019-05-02T00:47:42.409Z,8.05
2019-05-02T00:48:41.473Z,8.05
2019-05-02T00:49:40.467Z,7.94
2019-05-02T00:50:44.962Z,7.97
2019-05-02T00:51:40.443Z,7.95
2019-05-02T00:52:40.431Z,7.94
2019-05-02T00:53:44.497Z,7.95
2019-05-02T00:54:41.423Z,7.95
2019-05-02T00:55:40.408Z,7.90
2019-05-02T00:56:44.005Z,7.94
2019-05-02T00:57:40.377Z,7.91
2019-05-02T00:58:40.368Z,7.90
2019-05-02T00:59:42.410Z,7.98
2019-05-02T01:00:40.368Z,7.91
2019-05-02T01:01:40.345Z,7.94
2019-05-02T01:02:41.721Z,7.85
2019-05-02T01:03:40.315Z,7.85
2019-05-02T01:04:40.305Z,7.83
2019-05-02T01:05:40.353Z,7.82
2019-05-02T01:06:54.807Z,7.79
2019-05-02T01:07:40.276Z,7.85
2019-05-02T01:08:40.259Z,7.83
2019-05-02T01:09:42.154Z,7.85
2019-05-02T01:10:41.246Z,7.82
2019-05-02T01:11:40.226Z,7.83
2019-05-02T01:12:44.310Z,7.91
2019-05-02T01:13:41.206Z,7.85
2019-05-02T01:14:40.203Z,7.80
2019-05-02T01:15:44.153Z,7.76
2019-05-02T01:16:40.172Z,7.76
2019-05-02T01:17:40.165Z,7.70
2019-05-02T01:18:41.293Z,7.63
2019-05-02T01:19:40.155Z,7.75
2019-05-02T01:20:40.142Z,7.69
2019-05-02T01:21:40.202Z,7.66
2019-05-02T01:22:40.109Z,7.69
2019-05-02T01:23:40.121Z,7.58
2019-05-02T01:24:41.675Z,7.66
2019-05-02T01:25:40.076Z,7.67
2019-05-02T01:26:40.066Z,7.67
2019-05-02T01:27:41.213Z,7.60
2019-05-02T01:28:40.042Z,7.61
2019-05-02T01:29:40.063Z,7.70
2019-05-02T01:30:42.346Z,7.61
2019-05-02T01:31:40.010Z,7.60
2019-05-02T01:32:40.001Z,7.54
2019-05-02T01:33:41.660Z,7.57
2019-05-02T01:34:39.979Z,7.54
2019-05-02T01:35:40.000Z,7.53
2019-05-02T01:36:41.057Z,7.60
2019-05-02T01:37:39.945Z,7.60
2019-05-02T01:38:39.938Z,7.63
2019-05-02T01:39:42.753Z,7.54
2019-05-02T01:40:39.923Z,7.58
2019-05-02T01:41:39.905Z,7.63
2019-05-02T01:42:44.249Z,7.61
2019-05-02T01:43:39.881Z,7.56
2019-05-02T01:44:39.872Z,7.61
2019-05-02T01:45:41.856Z,7.69
2019-05-02T01:46:39.858Z,7.48
2019-05-02T01:47:39.851Z,7.57
2019-05-02T01:48:45.058Z,7.60
2019-05-02T01:49:40.816Z,7.48
2019-05-02T01:50:39.867Z,7.54
2019-05-02T01:51:42.055Z,7.45
2019-05-02T01:52:40.809Z,7.56
2019-05-02T01:53:39.789Z,7.53
2019-05-02T01:54:40.766Z,7.51
2019-05-02T01:55:40.775Z,7.47
2019-05-02T01:56:39.740Z,7.57
2019-05-02T01:57:39.997Z,7.50
2019-05-02T01:58:39.720Z,7.53
2019-05-02T01:59:39.712Z,7.48
2019-05-02T02:00:40.858Z,7.51
2019-05-02T02:01:39.686Z,7.47
2019-05-02T02:02:39.677Z,7.48
2019-05-02T02:03:40.482Z,7.47
2019-05-02T02:04:40.655Z,7.42
2019-05-02T02:05:39.651Z,7.45
2019-05-02T02:06:43.418Z,7.36
2019-05-02T02:07:40.647Z,7.43
2019-05-02T02:08:39.610Z,7.36
2019-05-02T02:09:44.117Z,7.35
2019-05-02T02:10:43.602Z,7.39
2019-05-02T02:11:39.604Z,7.29
2019-05-02T02:12:41.216Z,7.28
2019-05-02T02:13:40.583Z,7.33
2019-05-02T02:14:39.554Z,7.35
2019-05-02T02:15:39.542Z,7.39
2019-05-02T02:16:40.468Z,7.31
2019-05-02T02:17:39.530Z,7.33
2019-05-02T02:18:39.501Z,7.33
2019-05-02T02:19:40.704Z,7.32
2019-05-02T02:20:39.481Z,7.40
2019-05-02T02:21:42.560Z,7.33
2019-05-02T02:22:41.119Z,7.33
2019-05-02T02:23:39.455Z,7.42
2019-05-02T02:24:39.437Z,7.43
2019-05-02T02:25:39.427Z,7.43
2019-05-02T02:26:39.443Z,7.47
2019-05-02T02:27:39.406Z,7.51
2019-05-02T02:28:39.401Z,7.50
2019-05-02T02:29:43.952Z,7.56
2019-05-02T02:30:40.374Z,7.51
2019-05-02T02:31:45.992Z,7.56
2019-05-02T02:32:40.363Z,7.51
2019-05-02T02:33:41.051Z,7.50
2019-05-02T02:34:40.338Z,7.50
2019-05-02T02:35:49.816Z,7.39
2019-05-02T02:36:40.343Z,7.45
2019-05-02T02:37:39.298Z,7.42
2019-05-02T02:38:39.293Z,7.54
2019-05-02T02:39:39.301Z,7.48
2019-05-02T02:40:39.269Z,7.48
2019-05-02T02:41:39.258Z,7.53
2019-05-02T02:42:39.245Z,7.47
2019-05-02T02:43:39.233Z,7.45
2019-05-02T02:44:39.935Z,7.42
2019-05-02T02:45:39.214Z,7.51
2019-05-02T02:46:40.066Z,7.51
2019-05-02T02:47:39.193Z,7.48
2019-05-02T02:48:40.559Z,7.48
2019-05-02T02:49:39.195Z,7.45
2019-05-02T02:50:43.136Z,7.48
2019-05-02T02:51:40.159Z,7.51
2019-05-02T02:52:44.453Z,7.48
2019-05-02T02:53:40.129Z,7.50
2019-05-02T02:54:43.518Z,7.50
2019-05-02T02:55:40.119Z,7.50
2019-05-02T02:56:40.402Z,7.53
2019-05-02T02:57:39.114Z,7.47
2019-05-02T02:58:45.503Z,7.56
2019-05-02T02:59:40.074Z,7.50
2019-05-02T03:00:41.391Z,7.56
2019-05-02T03:01:40.052Z,7.56
2019-05-02T03:02:47.827Z,7.61
2019-05-02T03:03:40.018Z,7.54
2019-05-02T03:04:44.227Z,7.54
2019-05-02T03:05:39.998Z,7.57
2019-05-02T03:06:44.962Z,7.69
2019-05-02T03:07:39.987Z,7.67
2019-05-02T03:08:46.397Z,7.69
2019-05-02T03:09:39.959Z,7.61
2019-05-02T03:10:39.930Z,7.66
2019-05-02T03:11:40.052Z,7.63
2019-05-02T03:12:41.439Z,7.56
2019-05-02T03:13:51.503Z,7.57
2019-05-02T03:14:40.927Z,7.56
2019-05-02T03:15:39.890Z,7.69
2019-05-02T03:16:45.969Z,7.67
2019-05-02T03:17:39.881Z,7.63
2019-05-02T03:18:40.729Z,7.69
2019-05-02T03:19:38.845Z,7.63
2019-05-02T03:20:40.648Z,7.66
2019-05-02T03:21:38.827Z,7.54
2019-05-02T03:22:41.943Z,7.63
2019-05-02T03:23:38.802Z,7.58
2019-05-02T03:24:44.053Z,7.56
2019-05-02T03:25:50.486Z,7.48
2019-05-02T03:26:39.786Z,7.66
2019-05-02T03:27:40.390Z,7.56
2019-05-02T03:28:38.754Z,7.69
2019-05-02T03:29:43.925Z,7.57
2019-05-02T03:30:39.732Z,7.60
2019-05-02T03:31:38.732Z,7.67
2019-05-02T03:32:38.829Z,7.73
2019-05-02T03:33:52.680Z,7.57
2019-05-02T03:34:51.990Z,7.63
2019-05-02T03:35:43.723Z,7.56
2019-05-02T03:36:39.675Z,7.66
2019-05-02T03:37:44.694Z,7.58
2019-05-02T03:38:39.641Z,7.69
2019-05-02T03:39:38.678Z,7.54
2019-05-02T03:40:41.098Z,7.69
2019-05-02T03:41:38.613Z,7.67
2019-05-02T03:42:44.550Z,7.54
2019-05-02T03:43:39.591Z,7.60
2019-05-02T03:44:38.577Z,7.58
2019-05-02T03:45:42.803Z,7.53
2019-05-02T03:46:38.557Z,7.54
2019-05-02T03:47:43.997Z,7.56
2019-05-02T03:48:39.598Z,7.47
2019-05-02T03:49:40.818Z,7.53
2019-05-02T03:50:39.510Z,7.50
2019-05-02T03:51:38.503Z,7.51
2019-05-02T03:52:43.993Z,7.51
2019-05-02T03:53:39.480Z,7.36
2019-05-02T03:54:49.022Z,7.42
2019-05-02T03:55:39.460Z,7.40
2019-05-02T03:56:38.448Z,7.39
2019-05-02T03:57:41.881Z,7.31
2019-05-02T03:58:38.435Z,7.24
2019-05-02T03:59:41.614Z,7.25
2019-05-02T04:00:38.411Z,7.33
2019-05-02T04:01:41.174Z,7.33
2019-05-02T04:02:38.392Z,7.35
2019-05-02T04:03:41.076Z,7.29
2019-05-02T04:04:39.362Z,7.24
2019-05-02T04:05:40.439Z,7.29
2019-05-02T04:06:38.346Z,7.31
2019-05-02T04:07:40.565Z,7.33
2019-05-02T04:08:38.318Z,7.25
2019-05-02T04:09:39.763Z,7.23
2019-05-02T04:10:38.302Z,7.32
2019-05-02T04:11:40.679Z,7.24
2019-05-02T04:12:38.307Z,7.35
2019-05-02T04:13:38.296Z,7.31
2019-05-02T04:14:38.921Z,7.31
2019-05-02T04:15:38.248Z,7.28
2019-05-02T04:16:38.238Z,7.38
2019-05-02T04:17:38.221Z,7.28
2019-05-02T04:18:38.220Z,7.33
2019-05-02T04:19:38.199Z,7.31
2019-05-02T04:20:43.515Z,7.31
2019-05-02T04:21:39.196Z,7.33
2019-05-02T04:22:42.702Z,7.38
2019-05-02T04:23:39.174Z,7.39
2019-05-02T04:24:38.169Z,7.39
2019-05-02T04:25:38.143Z,7.40
2019-05-02T04:26:38.124Z,7.38
2019-05-02T04:27:38.113Z,7.38
2019-05-02T04:28:38.121Z,7.50
2019-05-02T04:29:38.105Z,7.47
2019-05-02T04:30:38.082Z,7.47
2019-05-02T04:31:38.070Z,7.53
2019-05-02T04:32:38.059Z,7.51
2019-05-02T04:33:38.057Z,7.48
2019-05-02T04:34:38.036Z,7.54
2019-05-02T04:35:38.033Z,7.48
2019-05-02T04:36:38.015Z,7.58
2019-05-02T04:37:41.148Z,7.63
2019-05-02T04:38:47.464Z,7.51
2019-05-02T04:39:39.323Z,7.60
2019-05-02T04:40:41.717Z,7.61
2019-05-02T04:41:42.299Z,7.60
2019-05-02T04:42:39.300Z,7.63
2019-05-02T04:43:40.805Z,7.75
2019-05-02T04:44:44.387Z,7.77
2019-05-02T04:45:54.796Z,7.67
2019-05-02T04:46:38.968Z,7.76
2019-05-02T04:47:39.010Z,7.75
2019-05-02T04:48:43.774Z,7.72
2019-05-02T04:49:39.336Z,7.76
2019-05-02T04:50:38.004Z,7.76
2019-05-02T04:51:38.272Z,7.73
2019-05-02T04:52:47.242Z,7.77
2019-05-02T04:53:44.347Z,7.82
2019-05-02T04:54:39.105Z,7.82
2019-05-02T04:55:38.237Z,7.85
2019-05-02T04:56:42.089Z,7.83
2019-05-02T04:57:46.882Z,7.83
2019-05-02T04:58:40.659Z,7.88
2019-05-02T04:59:39.430Z,7.85
2019-05-02T05:00:39.199Z,7.91
2019-05-02T05:01:43.444Z,7.95
2019-05-02T05:02:39.989Z,7.95
2019-05-02T05:03:37.759Z,7.94
2019-05-02T05:04:42.465Z,7.93
2019-05-02T05:05:40.325Z,8.06
2019-05-02T05:06:40.749Z,8.00
2019-05-02T05:07:44.477Z,8.01
2019-05-02T05:08:41.562Z,8.00
2019-05-02T05:09:40.148Z,7.97
2019-05-02T05:10:41.498Z,8.01
2019-05-02T05:11:38.638Z,8.03
2019-05-02T05:12:41.691Z,8.03
2019-05-02T05:13:37.621Z,7.95
2019-05-02T05:14:42.767Z,8.05
2019-05-02T05:15:48.465Z,8.15
2019-05-02T05:16:40.129Z,8.15
2019-05-02T05:17:37.623Z,8.13
2019-05-02T05:18:37.955Z,8.18
2019-05-02T05:19:37.553Z,8.12
2019-05-02T05:20:38.554Z,8.16
2019-05-02T05:21:37.534Z,8.19
2019-05-02T05:22:44.304Z,8.18
2019-05-02T05:23:38.506Z,8.13
2019-05-02T05:24:40.665Z,8.15
2019-05-02T05:25:37.988Z,8.18
2019-05-02T05:26:41.006Z,8.27
2019-05-02T05:27:38.464Z,8.24
2019-05-02T05:28:42.671Z,8.23
2019-05-02T05:29:38.818Z,8.27
2019-05-02T05:30:44.926Z,8.28
2019-05-02T05:31:38.430Z,8.31
2019-05-02T05:32:37.608Z,8.30
2019-05-02T05:33:37.825Z,8.41
2019-05-02T05:34:37.953Z,8.41
2019-05-02T05:35:38.538Z,8.36
2019-05-02T05:36:37.583Z,8.36
2019-05-02T05:37:38.180Z,8.31
2019-05-02T05:38:40.440Z,8.33
2019-05-02T05:39:38.141Z,8.42
2019-05-02T05:40:37.657Z,8.41
2019-05-02T05:41:37.896Z,8.45
2019-05-02T05:42:37.898Z,8.45
2019-05-02T05:43:37.982Z,8.46
2019-05-02T05:44:37.525Z,8.45
2019-05-02T05:45:48.647Z,8.45
2019-05-02T05:46:42.420Z,8.55
2019-05-02T05:47:37.805Z,8.61
2019-05-02T05:48:40.797Z,8.60
2019-05-02T05:49:37.590Z,8.66
2019-05-02T05:50:41.253Z,8.63
2019-05-02T05:51:37.547Z,8.67
2019-05-02T05:52:38.693Z,8.70
2019-05-02T05:53:37.595Z,8.71
2019-05-02T05:54:39.547Z,8.71
2019-05-02T05:55:38.295Z,8.85
2019-05-02T05:56:42.971Z,8.78
2019-05-02T05:57:38.548Z,8.85
2019-05-02T05:58:39.858Z,8.85
2019-05-02T05:59:38.155Z,8.89
2019-05-02T06:00:38.021Z,8.85
2019-05-02T06:01:38.399Z,8.92
2019-05-02T06:02:50.814Z,8.92
2019-05-02T06:03:41.891Z,9.00
2019-05-02T06:04:38.785Z,9.06
2019-05-02T06:05:38.546Z,9.03
2019-05-02T06:06:37.762Z,9.11
2019-05-02T06:07:41.783Z,9.18
2019-05-02T06:08:38.022Z,9.16
2019-05-02T06:09:37.039Z,9.11
2019-05-02T06:10:39.086Z,9.23
2019-05-02T06:11:37.989Z,9.26
2019-05-02T06:12:36.987Z,9.34
2019-05-02T06:13:38.172Z,9.26
2019-05-02T06:14:36.958Z,9.26
2019-05-02T06:15:38.919Z,9.28
2019-05-02T06:16:36.947Z,9.36
2019-05-02T06:17:36.925Z,9.32
2019-05-02T06:18:41.722Z,9.39
2019-05-02T06:19:37.902Z,9.36
2019-05-02T06:20:36.945Z,9.46
2019-05-02T06:21:40.081Z,9.54
2019-05-02T06:22:37.987Z,9.64
2019-05-02T06:23:41.080Z,9.56
2019-05-02T06:24:36.880Z,9.64
2019-05-02T06:25:37.031Z,9.62
2019-05-02T06:26:36.828Z,9.74
2019-05-02T06:27:36.816Z,9.76
2019-05-02T06:28:41.687Z,9.79
2019-05-02T06:29:37.794Z,9.84
2019-05-02T06:30:36.811Z,9.84
2019-05-02T06:31:38.193Z,9.89
2019-05-02T06:32:37.763Z,9.92
2019-05-02T06:33:36.756Z,9.98
2019-05-02T06:34:38.762Z,10.09
2019-05-02T06:35:37.743Z,10.15
2019-05-02T06:36:38.018Z,10.17
2019-05-02T06:37:36.722Z,10.25
2019-05-02T06:38:36.699Z,10.25
2019-05-02T06:39:36.709Z,10.37
2019-05-02T06:40:39.289Z,10.37
2019-05-02T06:41:37.671Z,10.35
2019-05-02T06:42:38.054Z,10.34
2019-05-02T06:43:41.254Z,10.44
2019-05-02T06:44:37.694Z,10.48
2019-05-02T06:45:37.491Z,10.51
2019-05-02T06:46:36.618Z,10.56
2019-05-02T06:47:41.504Z,10.60
2019-05-02T06:48:37.591Z,10.54
2019-05-02T06:49:36.581Z,10.71
2019-05-02T06:50:38.921Z,10.67
2019-05-02T06:51:36.563Z,10.60
2019-05-02T06:52:36.554Z,10.63
2019-05-02T06:53:36.557Z,10.75
2019-05-02T06:54:36.543Z,10.78
2019-05-02T06:55:38.739Z,10.84
2019-05-02T06:56:36.512Z,10.74
2019-05-02T06:57:36.498Z,10.78
2019-05-02T06:58:37.190Z,10.84
2019-05-02T06:59:36.479Z,10.89
2019-05-02T07:00:49.941Z,10.82
2019-05-02T07:01:37.453Z,10.82
2019-05-02T07:02:36.442Z,10.90
2019-05-02T07:03:36.436Z,10.90
2019-05-02T07:04:36.428Z,10.96
2019-05-02T07:05:36.454Z,10.94
2019-05-02T07:06:55.919Z,10.96
2019-05-02T07:07:37.778Z,10.92
2019-05-02T07:08:36.379Z,10.97
2019-05-02T07:09:41.028Z,11.02
2019-05-02T07:10:44.596Z,11.04
2019-05-02T07:11:38.956Z,11.08
2019-05-02T07:12:36.378Z,11.05
2019-05-02T07:13:42.211Z,11.10
2019-05-02T07:14:37.317Z,11.17
2019-05-02T07:15:38.581Z,11.15
2019-05-02T07:16:38.853Z,11.17
2019-05-02T07:17:38.319Z,11.22
2019-05-02T07:18:36.276Z,11.17
2019-05-02T07:19:36.272Z,11.29
2019-05-02T07:20:40.668Z,11.43
2019-05-02T07:21:37.242Z,11.30
2019-05-02T07:22:38.809Z,11.36
2019-05-02T07:23:36.249Z,11.47
2019-05-02T07:24:36.228Z,11.44
2019-05-02T07:25:39.130Z,11.48
2019-05-02T07:26:36.190Z,11.57
2019-05-02T07:27:38.916Z,11.54
2019-05-02T07:28:40.442Z,11.65
2019-05-02T07:29:37.161Z,11.63
2019-05-02T07:30:36.316Z,11.60
2019-05-02T07:31:36.135Z,11.75
2019-05-02T07:32:36.123Z,11.83
2019-05-02T07:33:37.481Z,11.86
2019-05-02T07:34:36.119Z,11.94
2019-05-02T07:35:36.100Z,11.99
2019-05-02T07:36:36.767Z,12.00
2019-05-02T07:37:36.076Z,12.00
2019-05-02T07:38:36.057Z,11.95
2019-05-02T07:39:40.528Z,12.03
2019-05-02T07:40:36.036Z,12.09
2019-05-02T07:41:37.273Z,12.15
2019-05-02T07:42:36.953Z,12.24
2019-05-02T07:43:37.022Z,12.21
2019-05-02T07:44:35.991Z,12.27
2019-05-02T07:45:40.191Z,12.25
2019-05-02T07:46:37.001Z,12.35
2019-05-02T07:47:40.450Z,12.45
2019-05-02T07:48:36.947Z,12.47
2019-05-02T07:49:35.936Z,12.57
2019-05-02T07:50:35.930Z,12.60
2019-05-02T07:51:35.929Z,12.67
2019-05-02T07:52:35.962Z,12.73
2019-05-02T07:53:35.898Z,12.85
2019-05-02T07:54:35.884Z,12.91
2019-05-02T07:55:40.823Z,13.05
2019-05-02T07:56:36.881Z,13.05
2019-05-02T07:57:35.854Z,13.22
2019-05-02T07:58:38.440Z,13.27
2019-05-02T07:59:36.830Z,13.42
2019-05-02T08:00:37.117Z,13.44
2019-05-02T08:01:35.821Z,13.52
2019-05-02T08:02:35.804Z,13.72
2019-05-02T08:03:35.888Z,13.81
2019-05-02T08:04:35.782Z,13.78
2019-05-02T08:05:35.765Z,13.86
2019-05-02T08:06:40.004Z,13.96
2019-05-02T08:07:36.792Z,13.93
2019-05-02T08:08:36.436Z,13.97
2019-05-02T08:09:39.276Z,14.11
2019-05-02T08:10:36.709Z,14.17
2019-05-02T08:11:37.106Z,14.26
2019-05-02T08:12:35.689Z,14.20
2019-05-02T08:13:35.679Z,14.29
2019-05-02T08:14:36.421Z,14.23
2019-05-02T08:15:35.665Z,14.33
2019-05-02T08:16:35.704Z,14.35
2019-05-02T08:17:35.634Z,14.40
2019-05-02T08:18:35.648Z,14.48
2019-05-02T08:19:37.534Z,14.55
2019-05-02T08:20:36.623Z,14.63
2019-05-02T08:21:35.603Z,14.62
2019-05-02T08:22:35.607Z,14.68
2019-05-02T08:23:35.573Z,14.89
2019-05-02T08:24:37.942Z,14.84
2019-05-02T08:25:35.570Z,14.89
2019-05-02T08:26:35.544Z,14.89
2019-05-02T08:27:36.718Z,15.00
2019-05-02T08:28:35.517Z,14.96
2019-05-02T08:29:35.507Z,15.11
2019-05-02T08:30:40.347Z,15.15
2019-05-02T08:31:36.491Z,15.27
2019-05-02T08:32:35.832Z,15.33
2019-05-02T08:33:35.959Z,15.36
2019-05-02T08:34:35.453Z,15.44
2019-05-02T08:35:35.445Z,15.51
2019-05-02T08:36:35.437Z,15.55
2019-05-02T08:37:40.877Z,15.59
2019-05-02T08:38:36.409Z,15.57
2019-05-02T08:39:35.414Z,15.59
2019-05-02T08:40:35.388Z,15.59
2019-05-02T08:41:35.382Z,15.62
2019-05-02T08:42:35.380Z,15.77
2019-05-02T08:43:35.356Z,15.72
2019-05-02T08:44:35.350Z,15.80
2019-05-02T08:45:38.132Z,15.92
2019-05-02T08:46:35.329Z,15.94
2019-05-02T08:47:35.333Z,16.00
2019-05-02T08:48:36.437Z,16.02
2019-05-02T08:49:36.320Z,16.09
2019-05-02T08:50:35.323Z,16.10
2019-05-02T08:51:35.279Z,16.20
2019-05-02T08:52:36.837Z,16.32
2019-05-02T08:53:36.257Z,16.35
2019-05-02T08:54:35.241Z,16.46
2019-05-02T08:55:35.230Z,16.64
2019-05-02T08:56:35.228Z,16.71
2019-05-02T08:57:36.327Z,16.74
2019-05-02T08:58:35.199Z,16.81
2019-05-02T08:59:35.186Z,16.99
2019-05-02T09:00:37.425Z,17.14
2019-05-02T09:01:35.710Z,17.27
2019-05-02T09:02:41.414Z,17.27
2019-05-02T09:03:54.716Z,17.30
2019-05-02T09:04:36.132Z,17.38
2019-05-02T09:05:36.942Z,17.51
2019-05-02T09:06:36.133Z,17.60
2019-05-02T09:07:37.197Z,17.63
2019-05-02T09:08:35.192Z,17.70
2019-05-02T09:09:35.085Z,17.74
2019-05-02T09:10:37.063Z,17.79
2019-05-02T09:11:36.075Z,17.80
2019-05-02T09:12:36.873Z,17.90
2019-05-02T09:13:36.047Z,17.87
2019-05-02T09:14:35.028Z,17.95
2019-05-02T09:15:35.359Z,17.98
2019-05-02T09:16:35.042Z,17.97
2019-05-02T09:17:38.639Z,18.01
2019-05-02T09:18:38.270Z,18.04
2019-05-02T09:19:35.978Z,18.18
2019-05-02T09:20:34.964Z,18.20
2019-05-02T09:21:36.046Z,18.31
2019-05-02T09:22:34.949Z,18.33
2019-05-02T09:23:37.100Z,18.43
2019-05-02T09:24:34.937Z,18.43
2019-05-02T09:25:34.916Z,18.43
2019-05-02T09:26:38.445Z,18.58
2019-05-02T09:27:34.895Z,18.53
2019-05-02T09:28:34.891Z,18.52
2019-05-02T09:29:37.301Z,18.68
2019-05-02T09:30:35.867Z,18.77
2019-05-02T09:31:36.716Z,18.96
2019-05-02T09:32:37.209Z,18.98
2019-05-02T09:33:36.864Z,19.08
2019-05-02T09:34:35.822Z,19.26
2019-05-02T09:35:34.810Z,19.27
2019-05-02T09:36:34.799Z,19.37
2019-05-02T09:37:34.798Z,19.47
2019-05-02T09:38:34.863Z,19.44
2019-05-02T09:39:36.505Z,19.52
2019-05-02T09:40:34.755Z,19.58
2019-05-02T09:41:36.258Z,19.74
2019-05-02T09:42:34.736Z,19.74
2019-05-02T09:43:38.970Z,19.89
2019-05-02T09:44:34.719Z,19.95
2019-05-02T09:45:37.426Z,20.09
2019-05-02T09:46:34.691Z,20.13
2019-05-02T09:47:46.985Z,20.26
2019-05-02T09:48:35.691Z,20.28
2019-05-02T09:49:34.660Z,20.37
2019-05-02T09:50:37.937Z,20.25
2019-05-02T09:51:34.641Z,20.25
2019-05-02T09:52:39.530Z,20.10
2019-05-02T09:53:35.625Z,19.95
2019-05-02T09:54:37.013Z,19.86
2019-05-02T09:55:35.603Z,19.82
2019-05-02T09:56:34.586Z,19.96
2019-05-02T09:57:34.576Z,20.09
2019-05-02T09:58:34.566Z,20.19
2019-05-02T09:59:34.629Z,20.22
2019-05-02T10:00:36.205Z,20.21
2019-05-02T10:01:35.838Z,20.09
2019-05-02T10:02:34.523Z,20.10
2019-05-02T10:03:34.518Z,20.10
2019-05-02T10:04:34.517Z,20.02
2019-05-02T10:05:34.494Z,19.86
2019-05-02T10:06:34.491Z,19.92
2019-05-02T10:07:34.473Z,19.91
2019-05-02T10:08:38.307Z,20.11
2019-05-02T10:09:35.456Z,20.41
2019-05-02T10:10:37.037Z,20.65
2019-05-02T10:11:35.441Z,20.95
2019-05-02T10:12:34.442Z,21.14
2019-05-02T10:13:34.421Z,21.40
2019-05-02T10:14:34.418Z,21.62
2019-05-02T10:15:34.460Z,21.77
2019-05-02T10:16:34.377Z,21.93
2019-05-02T10:17:37.478Z,21.69
2019-05-02T10:18:35.368Z,21.69
2019-05-02T10:19:34.347Z,21.60
2019-05-02T10:20:36.391Z,21.45
2019-05-02T10:21:34.326Z,21.21
2019-05-02T10:22:39.312Z,21.00
2019-05-02T10:23:35.302Z,20.82
2019-05-02T10:24:34.298Z,20.63
2019-05-02T10:25:38.692Z,20.43
2019-05-02T10:26:34.269Z,20.32
2019-05-02T10:27:38.493Z,20.26
2019-05-02T10:28:35.253Z,20.21
2019-05-02T10:29:34.244Z,20.09
2019-05-02T10:30:36.057Z,20.06
2019-05-02T10:31:37.564Z,20.03
2019-05-02T10:32:34.211Z,19.89
2019-05-02T10:33:37.622Z,19.82
2019-05-02T10:34:34.189Z,19.71
2019-05-02T10:35:40.400Z,19.63
2019-05-02T10:36:35.284Z,19.44
2019-05-02T10:37:38.240Z,19.40
2019-05-02T10:38:35.158Z,19.29
2019-05-02T10:39:37.811Z,19.19
2019-05-02T10:40:34.135Z,19.15
2019-05-02T10:41:39.445Z,19.14
2019-05-02T10:42:35.102Z,19.00
2019-05-02T10:43:34.088Z,18.92
2019-05-02T10:44:36.453Z,19.24
2019-05-02T10:45:34.072Z,19.24
2019-05-02T10:46:37.653Z,19.24
2019-05-02T10:47:36.332Z,19.34
2019-05-02T10:48:34.035Z,19.31
2019-05-02T10:49:34.036Z,19.47
2019-05-02T10:50:34.012Z,19.63
2019-05-02T10:51:34.005Z,19.66
2019-05-02T10:52:34.395Z,19.56
2019-05-02T10:53:33.990Z,19.52
2019-05-02T10:54:37.567Z,19.47
2019-05-02T10:55:33.957Z,19.51
2019-05-02T10:56:33.953Z,19.74
2019-05-02T10:57:33.943Z,19.92
2019-05-02T10:58:35.728Z,20.22
2019-05-02T10:59:33.937Z,20.51
2019-05-02T11:00:33.906Z,20.70
2019-05-02T11:01:33.892Z,20.82
2019-05-02T11:02:33.883Z,20.96
2019-05-02T11:03:38.111Z,21.05
2019-05-02T11:04:34.864Z,21.14
2019-05-02T11:05:37.072Z,21.14
2019-05-02T11:06:37.106Z,21.14
2019-05-02T11:07:34.866Z,21.14
2019-05-02T11:08:36.811Z,21.29
2019-05-02T11:09:34.813Z,21.32
2019-05-02T11:10:33.810Z,21.36
2019-05-02T11:11:33.788Z,21.43
2019-05-02T11:12:41.866Z,21.37
2019-05-02T11:13:34.767Z,21.48
2019-05-02T11:14:33.765Z,21.52
2019-05-02T11:15:33.770Z,21.72
2019-05-02T11:16:33.763Z,21.69
2019-05-02T11:17:36.188Z,21.79
2019-05-02T11:18:42.308Z,21.89
2019-05-02T11:19:34.709Z,21.99
2019-05-02T11:20:33.732Z,22.17
2019-05-02T11:21:33.681Z,22.22
2019-05-02T11:22:33.693Z,22.32
2019-05-02T11:23:33.703Z,22.47
2019-05-02T11:24:33.654Z,22.45
2019-05-02T11:25:33.646Z,22.48
2019-05-02T11:26:33.641Z,22.50
2019-05-02T11:27:33.633Z,22.54
2019-05-02T11:28:33.658Z,22.45
2019-05-02T11:29:33.597Z,22.28
2019-05-02T11:30:33.588Z,22.29
2019-05-02T11:31:33.584Z,22.10
2019-05-02T11:32:33.570Z,21.89
2019-05-02T11:33:33.638Z,21.77
2019-05-02T11:34:33.573Z,21.58
2019-05-02T11:35:33.533Z,21.35
2019-05-02T11:36:33.527Z,21.37
2019-05-02T11:37:33.518Z,21.21
2019-05-02T11:38:33.838Z,21.14
2019-05-02T11:39:44.138Z,21.06
2019-05-02T11:40:34.480Z,20.87
2019-05-02T11:41:33.530Z,20.69
2019-05-02T11:42:33.463Z,20.69
2019-05-02T11:43:37.254Z,20.67
2019-05-02T11:44:34.451Z,20.63
2019-05-02T11:45:33.445Z,20.87
2019-05-02T11:46:37.597Z,20.97
2019-05-02T11:47:34.430Z,20.97
2019-05-02T11:48:33.399Z,21.05
2019-05-02T11:49:33.402Z,21.02
2019-05-02T11:50:35.478Z,20.97
2019-05-02T11:51:33.381Z,20.96
2019-05-02T11:52:37.351Z,20.80
2019-05-02T11:53:33.346Z,20.77
2019-05-02T11:54:33.334Z,20.81
2019-05-02T11:55:33.327Z,20.67
2019-05-02T11:56:33.481Z,20.70
2019-05-02T11:57:33.363Z,20.66
2019-05-02T11:58:33.309Z,20.40
2019-05-02T11:59:33.278Z,20.50
2019-05-02T12:00:33.273Z,20.40
2019-05-02T12:01:37.189Z,20.40
2019-05-02T12:02:34.246Z,20.34
2019-05-02T12:03:36.879Z,20.25
2019-05-02T12:04:33.225Z,20.29
2019-05-02T12:05:35.679Z,20.10
2019-05-02T12:06:33.314Z,20.07
2019-05-02T12:07:33.205Z,20.10
2019-05-02T12:08:33.199Z,19.96
2019-05-02T12:09:33.169Z,19.96
2019-05-02T12:10:36.645Z,19.89
2019-05-02T12:11:33.171Z,19.94
2019-05-02T12:12:36.256Z,19.79
2019-05-02T12:13:33.142Z,19.77
2019-05-02T12:14:36.341Z,19.81
2019-05-02T12:15:33.106Z,19.86
2019-05-02T12:16:33.095Z,19.94
2019-05-02T12:17:33.104Z,20.03
2019-05-02T12:18:33.074Z,19.94
2019-05-02T12:19:33.061Z,19.94
2019-05-02T12:20:36.499Z,19.96
2019-05-02T12:21:33.045Z,19.92
2019-05-02T12:22:33.036Z,19.92
2019-05-02T12:23:36.050Z,19.84
2019-05-02T12:24:36.334Z,19.84
2019-05-02T12:25:33.991Z,19.73
2019-05-02T12:26:33.022Z,19.74
2019-05-02T12:27:33.018Z,19.66
2019-05-02T12:28:32.962Z,19.63
2019-05-02T12:29:33.477Z,19.52
2019-05-02T12:30:34.137Z,19.44
2019-05-02T12:31:32.963Z,19.34
2019-05-02T12:32:33.408Z,19.30
2019-05-02T12:33:32.906Z,19.22
2019-05-02T12:34:32.946Z,19.22
2019-05-02T12:35:32.894Z,19.27
2019-05-02T12:36:33.433Z,19.21
2019-05-02T12:37:32.876Z,19.33
2019-05-02T12:38:32.854Z,19.41
2019-05-02T12:39:32.846Z,19.59
2019-05-02T12:40:32.832Z,19.74
2019-05-02T12:41:33.245Z,19.95
2019-05-02T12:42:33.579Z,20.22
2019-05-02T12:43:32.819Z,20.43
2019-05-02T12:44:32.790Z,20.69
2019-05-02T12:45:33.693Z,20.80
2019-05-02T12:46:32.768Z,20.78
2019-05-02T12:47:32.781Z,20.87
2019-05-02T12:48:32.884Z,21.14
2019-05-02T12:49:32.760Z,21.21
2019-05-02T12:50:32.723Z,21.32
2019-05-02T12:51:32.721Z,21.36
2019-05-02T12:52:32.715Z,21.15
2019-05-02T12:53:32.733Z,21.14
2019-05-02T12:54:32.693Z,21.02
2019-05-02T12:55:32.728Z,20.97
2019-05-02T12:56:32.665Z,20.80
2019-05-02T12:57:32.667Z,20.72
2019-05-02T12:58:32.672Z,20.65
2019-05-02T12:59:32.634Z,20.63
2019-05-02T13:00:32.636Z,20.41
2019-05-02T13:01:33.179Z,20.40
2019-05-02T13:02:32.608Z,20.31
2019-05-02T13:03:32.582Z,20.18
2019-05-02T13:04:32.576Z,20.21
2019-05-02T13:05:32.560Z,20.06